Time;durP1;ratioP1;P1;durP2;ratioP2;P2;SDS_P1;SDS_P2;PMS_P1;PMS_P2;Temp;Humidity;BMP_temperature;BMP_pressure;BME280_temperature;BME280_humidity;BME280_pressure;Samples;Min_cycle;Max_cycle;Signal;HPM_P1;HPM_P2
2023/05/09 00:01:13;;;;;;;;;5.25;5.25;;;;;19.80;56.58;101160.41;4930571;28;47088;-60
2023/05/09 00:03:38;;;;;;;;;8.25;7.75;;;;;19.80;56.80;101162.38;4915725;28;45464;-61
2023/05/09 00:06:07;;;;;;;;;9.75;7.00;;;;;19.80;56.83;101162.38;4930669;28;45393;-61
2023/05/09 00:08:32;;;;;;;;;6.40;6.40;;;;;19.65;56.71;101152.78;4915789;28;45707;-60
2023/05/09 00:10:58;;;;;;;;;8.50;8.50;;;;;19.71;56.82;101162.84;4915970;28;46211;-60
2023/05/09 00:13:23;;;;;;;;;4.00;4.00;;;;;19.73;56.57;101149.50;4916108;28;45361;-60
2023/05/09 00:15:52;;;;;;;;;6.00;6.00;;;;;19.75;56.39;101141.72;4916018;28;45367;-61
2023/05/09 00:18:18;;;;;;;;;6.20;5.60;;;;;19.77;56.54;101139.53;4916630;28;45511;-60
2023/05/09 00:20:44;;;;;;;;;5.80;5.20;;;;;19.83;56.48;101136.75;4915499;28;45474;-60
2023/05/09 00:23:09;;;;;;;;;6.00;4.00;;;;;19.83;56.37;101131.19;4915792;28;45521;-61
2023/05/09 00:25:35;;;;;;;;;4.75;4.75;;;;;19.84;56.05;101128.16;4915314;28;45330;-60
2023/05/09 00:28:00;;;;;;;;;1.50;1.25;;;;;19.82;55.99;101115.59;4916431;28;45185;-61
2023/05/09 00:30:26;;;;;;;;;9.25;6.75;;;;;19.78;55.95;101118.06;4915730;28;45255;-61
2023/05/09 00:32:51;;;;;;;;;7.00;7.00;;;;;19.81;55.94;101117.56;4915468;28;45418;-61
2023/05/09 00:35:18;;;;;;;;;4.50;4.50;;;;;19.78;55.89;101106.94;4915405;28;45451;-61
2023/05/09 00:37:43;;;;;;;;;4.20;4.20;;;;;19.81;55.58;101117.56;4915666;28;45508;-61
2023/05/09 00:40:09;;;;;;;;;6.00;6.00;;;;;19.71;55.37;101106.31;4914973;28;46015;-61
2023/05/09 00:42:35;;;;;;;;;5.75;5.25;;;;;19.83;55.19;101112.56;4914967;28;45306;-61
2023/05/09 00:45:01;;;;;;;;;4.00;4.00;;;;;19.78;55.11;101098.56;4898193;28;45384;-62
2023/05/09 00:47:27;;;;;;;;;10.50;8.00;;;;;19.76;55.17;101098.00;4915873;28;45375;-61
2023/05/09 00:49:53;;;;;;;;;6.60;6.60;;;;;19.81;55.20;101103.63;4915099;28;46471;-61
2023/05/09 00:52:22;;;;;;;;;6.75;6.75;;;;;19.82;55.00;101104.44;4930466;28;45800;-61
2023/05/09 00:54:49;;;;;;;;;7.00;7.00;;;;;19.83;54.75;101095.84;4915384;28;45407;-61
2023/05/09 00:57:15;;;;;;;;;5.20;3.80;;;;;19.82;54.83;101090.53;4916012;28;45363;-61
2023/05/09 00:59:41;;;;;;;;;6.20;5.20;;;;;19.78;54.72;101084.66;4915589;28;46305;-63
2023/05/09 01:02:06;;;;;;;;;5.50;5.00;;;;;19.73;54.95;101090.19;4915400;28;45414;-62
2023/05/09 01:04:32;;;;;;;;;4.50;4.00;;;;;19.69;54.85;101075.94;4915731;28;45385;-62
2023/05/09 01:07:13;;;;;;;;;3.25;3.25;;;;;19.69;55.02;101089.03;4930181;28;45550;-61
2023/05/09 01:10:01;;;;;;;;;5.00;5.00;;;;;19.67;54.99;101082.88;4914199;28;46025;-61
2023/05/09 01:12:46;;;;;;;;;7.80;5.80;;;;;19.69;55.31;101083.47;4927447;28;45318;-61
2023/05/09 01:15:33;;;;;;;;;5.80;5.80;;;;;19.57;55.18;101076.13;4929950;28;45329;-61
2023/05/09 01:18:05;;;;;;;;;6.60;4.00;;;;;19.62;55.06;101070.63;4915864;28;45342;-61
2023/05/09 01:20:35;;;;;;;;;7.00;5.60;;;;;19.61;55.00;101057.81;4928992;28;46709;-61
2023/05/09 01:23:35;;;;;;;;;8.00;7.00;;;;;19.62;55.42;101070.63;4929965;28;45487;-61
2023/05/09 01:26:15;;;;;;;;;11.40;8.20;;;;;19.55;55.44;101047.72;4930046;28;45437;-61
2023/05/09 01:29:15;;;;;;;;;10.40;7.60;;;;;19.58;55.25;101051.94;4929846;28;45758;-61
2023/05/09 01:31:40;;;;;;;;;6.40;5.40;;;;;19.60;55.38;101045.00;4929685;28;48801;-61
2023/05/09 01:34:06;;;;;;;;;7.50;6.25;;;;;19.59;55.33;101043.28;4897852;28;45874;-61
2023/05/09 01:36:32;;;;;;;;;5.50;5.50;;;;;19.61;55.11;101045.81;4914140;28;45373;-61
2023/05/09 01:38:57;;;;;;;;;4.50;4.50;;;;;19.51;55.29;101029.88;4915562;28;45395;-61
2023/05/09 01:41:23;;;;;;;;;4.00;4.00;;;;;19.56;54.98;101038.28;4913349;28;45613;-61
2023/05/09 01:43:48;;;;;;;;;4.75;3.75;;;;;19.44;55.52;101021.75;4948318;28;45423;-62
2023/05/09 01:46:14;;;;;;;;;8.25;6.25;;;;;19.50;55.86;101031.84;5014165;28;45567;-61
2023/05/09 01:48:40;;;;;;;;;4.80;4.80;;;;;19.47;55.49;101031.50;5047320;28;45669;-61
2023/05/09 01:51:05;;;;;;;;;5.75;4.75;;;;;19.46;55.51;101027.03;5029840;28;46594;-61
2023/05/09 01:53:31;;;;;;;;;10.50;7.00;;;;;19.51;55.61;101035.44;5030576;28;45854;-61
2023/05/09 01:55:56;;;;;;;;;6.25;5.25;;;;;19.50;55.79;101028.19;5047511;28;45289;-61
2023/05/09 01:58:22;;;;;;;;;4.00;4.00;;;;;19.44;55.90;101040.38;4977245;28;45723;-61
2023/05/09 02:00:47;;;;;;;;;9.00;6.25;;;;;19.46;55.77;101027.03;4929504;28;46427;-61
2023/05/09 02:03:13;;;;;;;;;8.50;7.75;;;;;19.44;56.20;101026.47;4913804;28;45946;-62
2023/05/09 02:05:38;;;;;;;;;5.50;4.25;;;;;19.43;56.01;101028.41;4929417;28;45366;-62
2023/05/09 02:08:04;;;;;;;;;2.50;2.50;;;;;19.40;55.91;101023.38;4915058;28;45573;-64
2023/05/09 02:10:29;;;;;;;;;4.25;3.25;;;;;19.40;56.22;101023.38;4914546;28;46131;-62
2023/05/09 02:12:56;;;;;;;;;2.00;2.00;;;;;19.36;56.07;101014.72;4945714;28;45457;-62
2023/05/09 02:15:21;;;;;;;;;2.60;2.20;;;;;19.33;56.14;101004.09;4929515;28;45459;-62
2023/05/09 02:17:47;;;;;;;;;4.25;4.25;;;;;19.43;55.87;101008.09;4914794;28;45372;-62
2023/05/09 02:20:13;;;;;;;;;4.50;4.50;;;;;19.42;56.43;101015.59;4914636;28;46066;-62
2023/05/09 02:22:39;;;;;;;;;5.00;4.00;;;;;19.38;56.33;101008.91;4914609;28;45681;-62
2023/05/09 02:25:06;;;;;;;;;5.40;5.00;;;;;19.41;56.48;101013.09;4945144;28;45481;-61
2023/05/09 02:27:32;;;;;;;;;4.00;4.00;;;;;19.39;56.49;101012.50;4914697;28;45559;-62
2023/05/09 02:30:00;;;;;;;;;7.00;5.00;;;;;19.36;56.30;101017.50;4945239;28;46707;-62
2023/05/09 02:32:27;;;;;;;;;3.40;3.40;;;;;19.28;56.70;101001.31;4929055;28;46133;-63
2023/05/09 02:34:53;;;;;;;;;6.80;6.40;;;;;19.34;56.60;101016.94;4914037;28;45417;-62
2023/05/09 02:37:19;;;;;;;;;3.00;3.00;;;;;19.31;56.79;101011.88;4914496;28;45303;-61
2023/05/09 02:39:45;;;;;;;;;4.60;4.60;;;;;19.35;56.90;101009.41;4944191;28;46672;-61
2023/05/09 02:42:12;;;;;;;;;4.25;4.25;;;;;19.30;56.81;101007.44;4914208;28;45532;-62
2023/05/09 02:44:38;;;;;;;;;7.80;5.00;;;;;19.23;57.09;100990.13;4962979;28;45334;-62
2023/05/09 02:47:04;;;;;;;;;5.25;5.25;;;;;19.30;56.72;101004.66;5015147;28;46048;-62
2023/05/09 02:49:29;;;;;;;;;6.00;4.00;;;;;19.32;56.98;101005.22;5049935;28;47603;-62
2023/05/09 02:51:55;;;;;;;;;4.00;4.00;;;;;19.28;56.90;100998.53;5017465;28;45425;-61
2023/05/09 02:54:20;;;;;;;;;6.25;4.75;;;;;19.29;57.49;101000.19;5018069;28;45461;-62
2023/05/09 02:56:46;;;;;;;;;4.00;4.00;;;;;19.30;57.31;101003.78;5017657;28;45438;-62
2023/05/09 02:59:11;;;;;;;;;6.25;6.25;;;;;19.30;57.37;100992.66;5017887;28;46082;-62
2023/05/09 03:01:37;;;;;;;;;7.00;7.00;;;;;19.24;58.02;100989.00;5012431;28;45527;-61
2023/05/09 03:04:02;;;;;;;;;4.50;4.50;;;;;19.29;58.16;100988.22;4923486;28;45613;-61
2023/05/09 03:06:28;;;;;;;;;5.00;5.00;;;;;19.28;57.40;100992.09;4914079;28;45890;-61
2023/05/09 03:08:53;;;;;;;;;4.00;4.00;;;;;19.26;58.31;100992.34;4916563;28;45653;-61
2023/05/09 03:11:19;;;;;;;;;6.00;4.75;;;;;19.25;58.18;100987.91;4916696;28;45315;-62
2023/05/09 03:13:44;;;;;;;;;5.50;5.50;;;;;19.26;58.40;100986.78;4931418;28;45408;-61
2023/05/09 03:16:12;;;;;;;;;4.75;4.75;;;;;19.23;58.40;100990.94;4916644;28;45413;-61
2023/05/09 03:18:37;;;;;;;;;5.80;4.60;;;;;19.27;58.55;100991.28;4916652;28;45699;-61
2023/05/09 03:21:03;;;;;;;;;4.00;4.00;;;;;19.25;58.72;100987.91;4916387;28;45294;-61
2023/05/09 03:23:29;;;;;;;;;4.00;4.00;;;;;19.23;58.81;100982.59;4916862;28;45319;-60
2023/05/09 03:25:54;;;;;;;;;5.00;3.75;;;;;19.20;58.84;100985.91;4916825;28;45366;-61
2023/05/09 03:28:20;;;;;;;;;4.75;4.75;;;;;19.21;58.88;100982.03;4916428;28;45775;-61
2023/05/09 03:30:45;;;;;;;;;5.00;4.00;;;;;19.12;58.83;100977.22;4916337;28;45661;-61
2023/05/09 03:33:11;;;;;;;;;4.00;4.00;;;;;19.01;58.76;100962.34;4916315;28;45455;-61
2023/05/09 03:35:36;;;;;;;;;5.00;4.00;;;;;19.03;59.04;100983.25;4915400;28;45377;-61
2023/05/09 03:38:02;;;;;;;;;5.50;5.00;;;;;18.96;59.43;100980.66;4916014;28;47512;-62
2023/05/09 03:40:27;;;;;;;;;4.00;4.00;;;;;18.91;58.96;100972.28;4930799;28;45394;-61
2023/05/09 03:42:53;;;;;;;;;3.00;3.00;;;;;18.90;58.76;100967.78;4916767;28;45953;-61
2023/05/09 03:45:18;;;;;;;;;3.00;3.00;;;;;18.92;58.75;100971.16;4986308;28;45971;-62
2023/05/09 03:47:44;;;;;;;;;7.25;4.00;;;;;18.85;58.98;100955.78;5016620;28;46451;-61
2023/05/09 03:50:10;;;;;;;;;6.00;5.00;;;;;18.88;59.01;100967.22;5016409;28;45842;-61
2023/05/09 03:52:36;;;;;;;;;6.50;5.50;;;;;18.79;58.81;100957.69;5017067;28;45399;-61
2023/05/09 03:55:02;;;;;;;;;2.25;2.25;;;;;18.84;58.80;100954.97;5017220;28;45334;-59
2023/05/09 03:57:27;;;;;;;;;5.00;3.80;;;;;18.86;58.48;100961.09;5016495;28;45309;-60
2023/05/09 03:59:53;;;;;;;;;2.50;2.50;;;;;18.92;58.92;100970.31;5016734;28;45413;-62
2023/05/09 04:02:18;;;;;;;;;3.00;3.00;;;;;18.91;58.33;100958.38;4993711;28;45467;-62
2023/05/09 04:04:45;;;;;;;;;3.00;2.00;;;;;18.91;58.34;100963.09;4914316;28;45376;-60
2023/05/09 04:07:11;;;;;;;;;3.00;3.00;;;;;18.89;58.39;100943.03;4912479;28;45805;-61
2023/05/09 04:09:36;;;;;;;;;3.75;3.75;;;;;18.89;58.24;100943.88;4915861;28;45522;-60
2023/05/09 04:12:02;;;;;;;;;3.25;3.25;;;;;18.82;58.23;100954.38;4914409;28;45566;-61
2023/05/09 04:14:27;;;;;;;;;3.50;3.50;;;;;18.75;58.46;100950.97;4915958;28;45374;-61
2023/05/09 04:16:53;;;;;;;;;3.00;3.00;;;;;18.59;58.34;100948.03;4915725;28;46283;-61
2023/05/09 04:19:18;;;;;;;;;2.25;2.25;;;;;18.60;57.95;100949.69;4915712;28;45310;-61
2023/05/09 04:21:44;;;;;;;;;2.00;2.00;;;;;18.62;58.08;100949.44;4915808;28;45498;-61
2023/05/09 04:24:09;;;;;;;;;3.50;2.00;;;;;18.61;57.57;100945.00;4916347;28;45461;-61
2023/05/09 04:26:37;;;;;;;;;6.75;2.00;;;;;18.55;56.98;100935.75;4915606;28;46280;-61
2023/05/09 04:29:03;;;;;;;;;2.00;1.00;;;;;18.48;56.11;100935.97;4930128;28;45393;-62
2023/05/09 04:31:29;;;;;;;;;3.00;3.00;;;;;18.47;56.24;100937.03;4915574;28;45493;-61
2023/05/09 04:33:54;;;;;;;;;2.20;2.20;;;;;18.37;55.75;100925.81;4930530;28;45635;-61
2023/05/09 04:36:21;;;;;;;;;1.75;1.75;;;;;18.41;55.49;100933.38;4915343;28;45534;-62
2023/05/09 04:38:46;;;;;;;;;0.80;0.80;;;;;18.21;55.81;100914.53;4915477;28;45405;-61
2023/05/09 04:41:12;;;;;;;;;0.00;0.00;;;;;18.08;56.40;100892.72;4915648;28;45488;-61
2023/05/09 04:43:38;;;;;;;;;1.00;1.00;;;;;18.11;56.20;100909.69;4930152;28;45357;-61
2023/05/09 04:46:03;;;;;;;;;2.00;1.00;;;;;18.25;56.35;100917.63;5016006;28;46245;-62
2023/05/09 04:48:29;;;;;;;;;2.50;1.00;;;;;18.21;56.53;100917.31;5015549;28;45294;-62
2023/05/09 04:50:54;;;;;;;;;1.00;1.00;;;;;18.00;56.60;100899.53;5048205;28;45440;-61
2023/05/09 04:53:20;;;;;;;;;2.00;2.00;;;;;18.07;56.73;100911.31;5015895;28;45500;-60
2023/05/09 04:55:46;;;;;;;;;1.00;1.00;;;;;18.06;56.56;100914.34;5015510;28;45630;-62
2023/05/09 04:58:11;;;;;;;;;3.00;1.25;;;;;17.83;56.59;100910.69;5015830;28;45385;-63
2023/05/09 05:00:37;;;;;;;;;3.00;1.00;;;;;17.77;56.44;100903.38;5014443;28;45437;-61
2023/05/09 05:03:02;;;;;;;;;2.50;2.50;;;;;17.66;57.14;100908.78;5015912;28;45338;-64
2023/05/09 05:05:27;;;;;;;;;1.50;1.00;;;;;17.64;57.18;100899.88;5015592;28;46201;-61
2023/05/09 05:07:53;;;;;;;;;4.75;2.25;;;;;17.54;58.16;100896.94;5015145;28;45338;-60
2023/05/09 05:10:19;;;;;;;;;0.75;0.75;;;;;17.62;58.11;100896.53;5015051;28;45361;-60
2023/05/09 05:12:45;;;;;;;;;2.00;1.75;;;;;17.61;58.01;100887.34;5014877;28;45421;-60
2023/05/09 05:15:11;;;;;;;;;3.80;2.40;;;;;17.59;57.65;100884.00;5015505;28;46565;-60
2023/05/09 05:17:36;;;;;;;;;1.00;1.00;;;;;17.68;58.07;100897.44;5015216;28;45394;-61
2023/05/09 05:20:05;;;;;;;;;3.00;2.00;;;;;17.56;57.50;100892.00;5015834;28;45441;-61
2023/05/09 05:22:31;;;;;;;;;3.60;1.00;;;;;17.43;58.55;100884.84;5047349;28;45526;-62
2023/05/09 05:24:56;;;;;;;;;3.00;1.00;;;;;17.34;58.48;100884.44;5015133;28;46176;-61
2023/05/09 05:27:22;;;;;;;;;3.00;2.00;;;;;17.39;58.51;100887.31;5046931;28;45369;-61
2023/05/09 05:29:47;;;;;;;;;2.00;2.00;;;;;17.35;58.90;100883.38;5015088;28;45385;-61
2023/05/09 05:32:13;;;;;;;;;1.75;1.75;;;;;17.29;59.94;100871.34;5015404;28;45208;-61
2023/05/09 05:34:38;;;;;;;;;2.00;2.00;;;;;17.41;59.65;100871.25;5014852;28;46422;-61
2023/05/09 05:37:04;;;;;;;;;3.50;2.75;;;;;17.45;59.22;100880.75;5014779;28;45397;-63
2023/05/09 05:39:29;;;;;;;;;1.25;1.25;;;;;17.44;59.49;100879.06;5015810;28;45232;-62
2023/05/09 05:41:55;;;;;;;;;4.00;2.00;;;;;17.45;59.64;100880.75;5015445;28;45575;-61
2023/05/09 05:44:20;;;;;;;;;3.25;3.25;;;;;17.51;59.71;100873.34;5008106;28;46614;-61
2023/05/09 05:46:46;;;;;;;;;2.00;2.00;;;;;17.49;59.71;100872.75;4929485;28;45310;-60
2023/05/09 05:49:11;;;;;;;;;4.25;2.00;;;;;17.36;59.85;100862.00;4913659;28;45263;-61
2023/05/09 05:51:37;;;;;;;;;3.75;2.00;;;;;17.46;60.17;100871.31;4959544;28;45514;-61
2023/05/09 05:54:03;;;;;;;;;4.00;3.00;;;;;17.48;59.62;100873.84;5013458;28;46579;-61
2023/05/09 05:56:28;;;;;;;;;1.75;1.75;;;;;17.50;59.78;100868.03;5014889;28;45525;-61
2023/05/09 05:58:54;;;;;;;;;2.00;2.00;;;;;17.34;59.51;100846.47;5013581;28;45438;-61
2023/05/09 06:01:19;;;;;;;;;2.25;2.25;;;;;17.43;59.50;100857.13;5014717;28;45460;-62
2023/05/09 06:03:45;;;;;;;;;2.00;2.00;;;;;17.29;59.44;100848.34;5014513;28;46308;-62
2023/05/09 06:06:10;;;;;;;;;1.00;1.00;;;;;17.27;58.46;100851.34;5013483;28;45456;-60
2023/05/09 06:08:36;;;;;;;;;2.25;2.00;;;;;17.30;59.04;100858.34;5046952;28;45426;-60
2023/05/09 06:11:01;;;;;;;;;2.00;2.00;;;;;17.30;59.56;100852.78;5046598;28;45442;-62
2023/05/09 06:13:27;;;;;;;;;2.25;1.50;;;;;17.28;59.85;100849.44;5014740;28;45496;-62
2023/05/09 06:15:56;;;;;;;;;4.75;4.00;;;;;17.31;59.58;100843.38;5015150;28;45708;-61
2023/05/09 06:18:21;;;;;;;;;2.60;2.20;;;;;17.23;59.16;100844.63;5046407;28;45431;-61
2023/05/09 06:20:47;;;;;;;;;2.00;2.00;;;;;17.18;59.81;100844.56;5015483;28;45362;-61
2023/05/09 06:23:12;;;;;;;;;3.25;2.00;;;;;17.24;59.13;100840.75;5012856;28;46101;-61
2023/05/09 06:25:38;;;;;;;;;1.75;1.75;;;;;17.22;59.38;100839.34;5014819;28;45289;-61
2023/05/09 06:28:04;;;;;;;;;2.00;2.00;;;;;17.24;59.70;100831.59;5014802;28;45407;-63
2023/05/09 06:30:29;;;;;;;;;1.00;1.00;;;;;17.24;59.38;100829.66;5047325;28;45298;-63
2023/05/09 06:32:56;;;;;;;;;1.50;1.50;;;;;17.17;59.23;100837.31;5014898;28;46548;-62
2023/05/09 06:35:22;;;;;;;;;1.00;1.00;;;;;17.02;59.26;100805.50;5013748;28;45445;-62
2023/05/09 06:37:48;;;;;;;;;2.00;1.00;;;;;17.12;59.54;100821.44;5046873;28;45391;-62
2023/05/09 06:40:13;;;;;;;;;2.00;2.00;;;;;17.11;59.01;100817.00;5014567;28;45443;-61
2023/05/09 06:42:39;;;;;;;;;1.00;1.00;;;;;17.01;59.80;100812.09;5046070;28;47315;-62
2023/05/09 06:45:05;;;;;;;;;3.00;1.25;;;;;17.12;59.60;100817.84;4983533;28;45345;-60
2023/05/09 06:47:31;;;;;;;;;2.00;1.00;;;;;17.05;59.55;100820.78;4944565;28;45417;-61
2023/05/09 06:49:56;;;;;;;;;1.25;1.25;;;;;16.94;59.50;100815.06;4914509;28;45385;-61
2023/05/09 06:52:22;;;;;;;;;2.00;2.00;;;;;16.78;60.57;100800.13;4951616;28;45843;-61
2023/05/09 06:54:47;;;;;;;;;2.75;2.00;;;;;16.90;60.41;100813.03;5014125;28;45407;-61
2023/05/09 06:57:12;;;;;;;;;1.25;1.00;;;;;16.87;60.86;100797.75;5044636;28;45997;-62
2023/05/09 06:59:38;;;;;;;;;1.00;1.00;;;;;17.01;60.47;100808.47;5013668;28;45503;-62
2023/05/09 07:02:03;;;;;;;;;2.00;2.00;;;;;16.87;60.28;100800.53;5012545;28;45860;-62
2023/05/09 07:04:29;;;;;;;;;2.50;1.75;;;;;16.96;60.47;100800.13;5045521;28;45498;-62
2023/05/09 07:06:54;;;;;;;;;3.25;3.25;;;;;16.90;59.76;100780.63;5014288;28;45408;-62
2023/05/09 07:09:20;;;;;;;;;1.00;1.00;;;;;16.87;60.38;100786.66;5045872;28;45546;-62
2023/05/09 07:11:46;;;;;;;;;1.40;1.00;;;;;16.89;60.50;100780.88;5028709;28;47259;-61
2023/05/09 07:14:11;;;;;;;;;4.00;2.50;;;;;16.81;60.92;100779.34;5013786;28;45275;-62
2023/05/09 07:16:37;;;;;;;;;1.75;1.75;;;;;16.74;61.03;100770.38;5045915;28;45381;-63
2023/05/09 07:19:02;;;;;;;;;1.25;1.25;;;;;16.77;60.89;100780.97;5013760;28;45360;-64
2023/05/09 07:21:27;;;;;;;;;1.75;1.75;;;;;16.64;61.03;100768.28;5013729;28;46013;-63
2023/05/09 07:23:53;;;;;;;;;3.50;2.75;;;;;16.67;61.30;100763.06;5028983;28;45357;-63
2023/05/09 07:26:18;;;;;;;;;2.00;2.00;;;;;16.67;61.57;100759.47;5045818;28;45371;-62
2023/05/09 07:28:44;;;;;;;;;3.00;3.00;;;;;16.75;61.45;100758.22;5013528;28;45566;-62
2023/05/09 07:31:09;;;;;;;;;1.00;1.00;;;;;16.64;61.03;100741.44;5012294;28;46336;-62
2023/05/09 07:33:35;;;;;;;;;2.00;2.00;;;;;16.61;60.88;100736.41;5045019;28;45462;-62
2023/05/09 07:36:00;;;;;;;;;3.00;1.25;;;;;16.58;61.52;100752.66;5017033;28;45285;-61
2023/05/09 07:38:26;;;;;;;;;3.00;3.00;;;;;16.70;61.81;100747.88;5048883;28;45359;-61
2023/05/09 07:40:54;;;;;;;;;1.00;1.00;;;;;16.74;61.17;100737.97;5048320;28;47309;-61
2023/05/09 07:43:19;;;;;;;;;3.00;3.00;;;;;16.79;61.59;100745.53;5016674;28;45366;-62
2023/05/09 07:45:45;;;;;;;;;2.25;2.25;;;;;16.91;61.46;100732.41;5007695;28;45567;-61
2023/05/09 07:48:11;;;;;;;;;1.50;1.50;;;;;16.95;61.42;100732.72;4947115;28;45417;-63
2023/05/09 07:50:37;;;;;;;;;2.25;2.25;;;;;16.86;61.60;100712.91;4930607;28;47694;-62
2023/05/09 07:53:02;;;;;;;;;3.25;3.25;;;;;16.98;61.59;100728.63;4907180;28;45502;-61
2023/05/09 07:55:28;;;;;;;;;3.75;2.00;;;;;17.14;61.40;100726.91;4928849;28;45341;-62
2023/05/09 07:57:53;;;;;;;;;2.75;2.75;;;;;17.17;61.77;100730.03;4913511;28;45349;-63
2023/05/09 08:00:22;;;;;;;;;2.75;2.75;;;;;17.20;61.46;100729.50;4916061;28;46039;-63
2023/05/09 08:02:51;;;;;;;;;4.40;3.40;;;;;17.15;61.83;100729.44;4915672;28;45473;-63
2023/05/09 08:05:17;;;;;;;;;4.20;3.20;;;;;17.13;61.60;100725.25;4915050;28;45353;-63
2023/05/09 08:07:43;;;;;;;;;4.50;4.00;;;;;17.04;62.09;100728.44;4930881;28;45381;-64
2023/05/09 08:10:08;;;;;;;;;4.25;4.25;;;;;17.07;61.98;100729.88;4915566;28;46572;-63
2023/05/09 08:12:34;;;;;;;;;5.25;2.50;;;;;17.10;62.22;100718.28;4930758;28;45303;-64
2023/05/09 08:14:59;;;;;;;;;3.50;3.00;;;;;17.13;62.65;100720.53;4915699;28;45292;-61
2023/05/09 08:17:25;;;;;;;;;3.00;3.00;;;;;17.18;62.56;100717.81;4914553;28;45506;-64
2023/05/09 08:19:50;;;;;;;;;3.25;3.00;;;;;17.20;62.59;100709.25;4915839;28;46442;-61
2023/05/09 08:22:17;;;;;;;;;4.00;4.00;;;;;17.20;62.42;100704.53;4915862;28;45235;-60
2023/05/09 08:24:43;;;;;;;;;4.40;3.60;;;;;17.25;62.80;100714.03;4930261;28;45409;-60
2023/05/09 08:27:08;;;;;;;;;4.25;3.75;;;;;17.26;62.92;100705.47;4916042;28;45789;-62
2023/05/09 08:29:34;;;;;;;;;4.00;4.00;;;;;17.33;62.55;100700.56;4911974;28;46585;-62
2023/05/09 08:32:00;;;;;;;;;3.60;3.00;;;;;17.39;62.62;100698.66;4912887;28;45442;-62
2023/05/09 08:34:25;;;;;;;;;5.00;4.00;;;;;17.29;63.03;100676.38;4935219;28;45551;-61
2023/05/09 08:36:52;;;;;;;;;4.00;4.00;;;;;17.35;62.60;100686.44;4950036;28;45396;-61
2023/05/09 08:39:19;;;;;;;;;3.00;3.00;;;;;17.39;63.36;100684.78;4914670;28;45381;-61
2023/05/09 08:41:44;;;;;;;;;2.60;2.60;;;;;17.38;63.07;100683.13;4914661;28;45796;-64
2023/05/09 08:44:10;;;;;;;;;6.00;4.25;;;;;17.45;63.11;100677.38;4914814;28;45452;-62
2023/05/09 08:46:37;;;;;;;;;5.75;4.75;;;;;17.44;63.33;100679.31;5012250;28;45340;-61
2023/05/09 08:49:05;;;;;;;;;4.40;3.00;;;;;17.45;63.19;100671.84;5014472;28;46626;-61
2023/05/09 08:51:31;;;;;;;;;2.40;1.60;;;;;17.49;63.35;100672.97;5047005;28;45498;-62
2023/05/09 08:53:56;;;;;;;;;4.00;3.00;;;;;17.42;62.91;100659.31;5011130;28;45436;-62
2023/05/09 08:56:22;;;;;;;;;3.00;3.00;;;;;17.35;63.82;100669.78;4930337;28;45555;-62
2023/05/09 08:58:48;;;;;;;;;3.40;3.40;;;;;17.44;63.60;100671.00;4943382;28;46058;-61
2023/05/09 09:01:14;;;;;;;;;2.50;2.50;;;;;17.38;63.96;100657.31;4941371;28;45356;-61
2023/05/09 09:03:44;;;;;;;;;3.50;2.75;;;;;17.46;63.57;100656.88;4931069;28;46341;-60
2023/05/09 09:06:09;;;;;;;;;6.40;4.40;;;;;17.51;63.94;100656.94;4993678;28;46508;-59
2023/05/09 09:08:35;;;;;;;;;3.75;2.50;;;;;17.53;64.24;100653.88;5008788;28;46048;-61
2023/05/09 09:11:01;;;;;;;;;4.00;2.00;;;;;17.58;63.39;100662.25;4928038;28;46193;-60
2023/05/09 09:13:26;;;;;;;;;3.50;3.50;;;;;17.56;63.93;100654.19;4909927;28;45653;-62
2023/05/09 09:15:52;;;;;;;;;3.00;3.00;;;;;17.57;64.75;100660.59;4911767;28;45575;-61
2023/05/09 09:18:21;;;;;;;;;2.75;2.75;;;;;17.52;63.94;100644.72;4910986;28;45803;-60
2023/05/09 09:20:57;;;;;;;;;2.00;2.00;;;;;17.50;63.65;100652.44;4944098;28;45484;-61
2023/05/09 09:23:24;;;;;;;;;4.40;4.40;;;;;17.54;64.73;100644.44;4992699;28;45371;-61
2023/05/09 09:26:00;;;;;;;;;3.40;2.40;;;;;17.52;64.51;100643.88;5025386;28;45428;-61
2023/05/09 09:28:25;;;;;;;;;3.40;3.00;;;;;17.49;64.53;100639.69;5009277;28;46095;-61
2023/05/09 09:30:51;;;;;;;;;2.00;2.00;;;;;17.45;64.38;100644.91;4994124;28;45453;-61
2023/05/09 09:33:23;;;;;;;;;4.00;4.00;;;;;17.39;65.01;100653.47;4983579;28;46428;-60
2023/05/09 09:35:49;;;;;;;;;3.20;3.00;;;;;17.41;65.03;100648.47;4933040;28;45415;-61
2023/05/09 09:38:19;;;;;;;;;2.80;1.80;;;;;17.45;64.82;100649.66;4947506;28;46485;-61
2023/05/09 09:40:50;;;;;;;;;3.40;2.40;;;;;17.45;64.93;100641.31;4931195;28;45778;-61
2023/05/09 09:43:15;;;;;;;;;3.00;3.00;;;;;17.50;65.43;100648.84;4944461;28;45316;-61
2023/05/09 09:45:41;;;;;;;;;2.00;2.00;;;;;17.52;64.94;100647.50;4926917;28;45370;-62
2023/05/09 09:48:06;;;;;;;;;1.25;1.25;;;;;17.53;65.03;100648.31;4928535;28;46218;-62
2023/05/09 09:50:32;;;;;;;;;3.00;2.00;;;;;17.47;65.32;100653.00;4932592;28;45256;-63
2023/05/09 09:52:59;;;;;;;;;5.00;5.00;;;;;17.42;65.46;100642.69;4933050;28;45342;-62
2023/05/09 09:55:25;;;;;;;;;1.20;1.20;;;;;17.34;65.60;100635.66;4962907;28;45419;-62
2023/05/09 09:57:51;;;;;;;;;2.00;2.00;;;;;17.30;65.48;100640.03;4957257;28;46368;-61
2023/05/09 10:00:18;;;;;;;;;2.75;2.00;;;;;17.18;65.28;100634.63;4944187;28;45319;-62
2023/05/09 10:02:50;;;;;;;;;2.60;2.00;;;;;17.27;65.91;100635.00;4913152;28;45425;-61
2023/05/09 10:05:20;;;;;;;;;1.00;1.00;;;;;17.33;65.80;100633.13;4914037;28;45527;-63
2023/05/09 10:07:50;;;;;;;;;1.20;1.20;;;;;17.25;65.18;100625.28;4913373;28;45873;-61
2023/05/09 10:10:16;;;;;;;;;4.00;3.00;;;;;17.20;66.01;100610.25;4916225;28;45393;-60
2023/05/09 10:12:41;;;;;;;;;2.25;2.25;;;;;17.34;65.63;100619.00;4924471;28;45680;-61
2023/05/09 10:15:08;;;;;;;;;2.00;2.00;;;;;17.38;65.83;100622.09;4912409;28;45573;-61
2023/05/09 10:17:33;;;;;;;;;1.40;1.40;;;;;17.33;66.05;100599.84;4910950;28;46560;-62
2023/05/09 10:20:01;;;;;;;;;1.00;1.00;;;;;17.47;66.04;100612.19;4911744;28;45298;-61
2023/05/09 10:22:27;;;;;;;;;3.00;3.00;;;;;17.50;65.79;100612.78;4899030;28;45570;-62
2023/05/09 10:25:01;;;;;;;;;1.00;1.00;;;;;17.43;65.66;100607.44;4958826;28;45513;-62
2023/05/09 10:27:29;;;;;;;;;6.00;3.40;;;;;17.42;65.64;100609.38;4931052;28;45354;-61
2023/05/09 10:30:03;;;;;;;;;2.60;1.80;;;;;17.42;65.87;100598.28;4930938;28;45405;-61
2023/05/09 10:32:38;;;;;;;;;2.60;2.00;;;;;17.41;65.89;100598.53;4961685;28;45581;-60
2023/05/09 10:35:04;;;;;;;;;4.00;1.20;;;;;17.49;65.94;100592.53;4929124;28;45350;-60
2023/05/09 10:37:30;;;;;;;;;1.00;1.00;;;;;17.53;66.22;100592.81;4929840;28;45624;-62
2023/05/09 10:39:56;;;;;;;;;2.75;1.50;;;;;17.53;66.03;100590.91;4931891;28;45385;-63
2023/05/09 10:42:23;;;;;;;;;3.00;2.00;;;;;17.57;65.97;100588.44;4930434;28;45818;-60
2023/05/09 10:44:50;;;;;;;;;1.00;1.00;;;;;17.56;66.36;100586.78;4961842;28;45437;-62
2023/05/09 10:47:15;;;;;;;;;0.60;0.60;;;;;17.61;65.92;100590.41;4950945;28;46194;-60
2023/05/09 10:49:42;;;;;;;;;1.00;1.00;;;;;17.50;65.11;100585.88;4969857;28;45552;-61
2023/05/09 10:52:07;;;;;;;;;2.00;2.00;;;;;17.40;66.36;100583.81;4963457;28;45269;-61
2023/05/09 10:54:33;;;;;;;;;2.00;2.00;;;;;17.57;66.47;100577.34;4946644;28;45567;-61
2023/05/09 10:56:59;;;;;;;;;1.00;1.00;;;;;17.66;66.38;100584.06;4927768;28;46532;-62
2023/05/09 10:59:39;;;;;;;;;1.40;1.40;;;;;17.74;66.29;100591.09;4928544;28;45393;-61
2023/05/09 11:02:10;;;;;;;;;3.00;3.00;;;;;17.80;66.25;100591.97;4913929;28;45408;-60
2023/05/09 11:04:35;;;;;;;;;1.20;0.60;;;;;17.77;65.58;100554.47;4914244;28;45411;-61
2023/05/09 11:07:01;;;;;;;;;1.00;1.00;;;;;17.89;65.99;100580.09;4927942;28;46151;-61
2023/05/09 11:09:34;;;;;;;;;1.00;1.00;;;;;17.88;65.59;100563.75;4913531;28;45402;-61
2023/05/09 11:12:07;;;;;;;;;2.00;2.00;;;;;17.98;65.87;100574.91;4930597;28;45239;-60
2023/05/09 11:14:50;;;;;;;;;0.80;0.80;;;;;18.02;65.37;100573.28;4916998;28;45473;-62
2023/05/09 11:17:22;;;;;;;;;2.00;2.00;;;;;18.06;65.81;100564.44;4930786;28;47148;-62
2023/05/09 11:19:50;;;;;;;;;1.00;1.00;;;;;18.10;64.80;100562.81;4916731;28;45866;-60
2023/05/09 11:22:16;;;;;;;;;2.00;2.00;;;;;18.11;65.28;100558.94;4916392;28;45491;-59